sensor_id;sensor_type;location;lat;lon;timestamp;temperature;humidity
15341;DHT22;7770;52.158;5.372;2023-03-17T00:01:18;8.70;99.90
15341;DHT22;7770;52.158;5.372;2023-03-17T00:04:04;8.60;99.90
15341;DHT22;7770;52.158;5.372;2023-03-17T00:06:52;8.50;99.90
15341;DHT22;7770;52.158;5.372;2023-03-17T00:09:38;8.50;99.90
15341;DHT22;7770;52.158;5.372;2023-03-17T00:12:24;8.50;99.90
15341;DHT22;7770;52.158;5.372;2023-03-17T00:15:11;8.50;99.90
15341;DHT22;7770;52.158;5.372;2023-03-17T00:17:59;8.40;99.90
15341;DHT22;7770;52.158;5.372;2023-03-17T00:20:46;8.30;99.90
15341;DHT22;7770;52.158;5.372;2023-03-17T00:23:33;8.30;99.90
15341;DHT22;7770;52.158;5.372;2023-03-17T00:26:20;8.30;99.90
15341;DHT22;7770;52.158;5.372;2023-03-17T00:29:07;8.30;99.90
15341;DHT22;7770;52.158;5.372;2023-03-17T00:31:55;8.30;99.90
15341;DHT22;7770;52.158;5.372;2023-03-17T00:34:42;8.40;99.90
15341;DHT22;7770;52.158;5.372;2023-03-17T00:37:28;8.30;99.90
15341;DHT22;7770;52.158;5.372;2023-03-17T00:40:16;8.30;99.90
15341;DHT22;7770;52.158;5.372;2023-03-17T00:43:04;8.30;99.90
15341;DHT22;7770;52.158;5.372;2023-03-17T00:45:52;8.30;99.90
15341;DHT22;7770;52.158;5.372;2023-03-17T00:48:41;8.30;99.90
15341;DHT22;7770;52.158;5.372;2023-03-17T00:51:28;8.20;99.90
15341;DHT22;7770;52.158;5.372;2023-03-17T00:54:14;8.20;99.90
15341;DHT22;7770;52.158;5.372;2023-03-17T00:57:01;8.20;99.90
15341;DHT22;7770;52.158;5.372;2023-03-17T00:59:47;8.10;99.90
15341;DHT22;7770;52.158;5.372;2023-03-17T01:02:33;8.20;99.90
15341;DHT22;7770;52.158;5.372;2023-03-17T01:05:21;8.10;99.90
15341;DHT22;7770;52.158;5.372;2023-03-17T01:08:08;8.10;99.90
15341;DHT22;7770;52.158;5.372;2023-03-17T01:10:55;8.10;99.90
15341;DHT22;7770;52.158;5.372;2023-03-17T01:13:41;8.10;99.90
15341;DHT22;7770;52.158;5.372;2023-03-17T01:16:27;8.10;99.90
15341;DHT22;7770;52.158;5.372;2023-03-17T01:19:13;8.20;99.90
15341;DHT22;7770;52.158;5.372;2023-03-17T01:21:59;8.20;99.90
15341;DHT22;7770;52.158;5.372;2023-03-17T01:24:46;8.10;99.90
15341;DHT22;7770;52.158;5.372;2023-03-17T01:27:34;8.10;99.90
15341;DHT22;7770;52.158;5.372;2023-03-17T01:30:34;8.10;99.90
15341;DHT22;7770;52.158;5.372;2023-03-17T01:33:24;8.10;99.90
15341;DHT22;7770;52.158;5.372;2023-03-17T01:36:11;8.10;99.90
15341;DHT22;7770;52.158;5.372;2023-03-17T01:38:57;8.10;99.90
15341;DHT22;7770;52.158;5.372;2023-03-17T01:41:43;8.10;99.90
15341;DHT22;7770;52.158;5.372;2023-03-17T01:44:30;8.20;99.90
15341;DHT22;7770;52.158;5.372;2023-03-17T01:47:16;8.10;99.90
15341;DHT22;7770;52.158;5.372;2023-03-17T01:50:07;8.10;99.90
15341;DHT22;7770;52.158;5.372;2023-03-17T01:52:54;8.10;99.90
15341;DHT22;7770;52.158;5.372;2023-03-17T01:55:41;8.10;99.90
15341;DHT22;7770;52.158;5.372;2023-03-17T01:58:28;8.10;99.90
15341;DHT22;7770;52.158;5.372;2023-03-17T02:01:15;8.00;99.90
15341;DHT22;7770;52.158;5.372;2023-03-17T02:04:01;8.00;99.90
15341;DHT22;7770;52.158;5.372;2023-03-17T02:06:49;8.00;99.90
15341;DHT22;7770;52.158;5.372;2023-03-17T02:09:36;8.00;99.90
15341;DHT22;7770;52.158;5.372;2023-03-17T02:12:23;7.90;99.90
15341;DHT22;7770;52.158;5.372;2023-03-17T02:15:11;7.90;99.90
15341;DHT22;7770;52.158;5.372;2023-03-17T02:17:57;7.90;99.90
15341;DHT22;7770;52.158;5.372;2023-03-17T02:23:31;7.70;99.90
15341;DHT22;7770;52.158;5.372;2023-03-17T02:26:19;7.80;99.90
15341;DHT22;7770;52.158;5.372;2023-03-17T02:29:06;7.80;99.90
15341;DHT22;7770;52.158;5.372;2023-03-17T02:31:52;7.80;99.90
15341;DHT22;7770;52.158;5.372;2023-03-17T02:34:39;7.80;99.90
15341;DHT22;7770;52.158;5.372;2023-03-17T02:37:25;7.70;99.90
15341;DHT22;7770;52.158;5.372;2023-03-17T02:40:12;7.70;99.90
15341;DHT22;7770;52.158;5.372;2023-03-17T02:42:59;7.70;99.90
15341;DHT22;7770;52.158;5.372;2023-03-17T02:45:45;7.80;99.90
15341;DHT22;7770;52.158;5.372;2023-03-17T02:48:32;7.80;99.90
15341;DHT22;7770;52.158;5.372;2023-03-17T02:51:19;7.80;99.90
15341;DHT22;7770;52.158;5.372;2023-03-17T02:54:05;7.90;99.90
15341;DHT22;7770;52.158;5.372;2023-03-17T02:56:51;7.80;99.90
15341;DHT22;7770;52.158;5.372;2023-03-17T02:59:37;7.80;99.90
15341;DHT22;7770;52.158;5.372;2023-03-17T03:02:23;7.80;99.90
15341;DHT22;7770;52.158;5.372;2023-03-17T03:05:09;7.80;99.90
15341;DHT22;7770;52.158;5.372;2023-03-17T03:07:55;7.90;99.90
15341;DHT22;7770;52.158;5.372;2023-03-17T03:10:42;7.90;99.90
15341;DHT22;7770;52.158;5.372;2023-03-17T03:13:28;7.90;99.90
15341;DHT22;7770;52.158;5.372;2023-03-17T03:16:14;7.90;99.90
15341;DHT22;7770;52.158;5.372;2023-03-17T03:19:01;8.00;99.90
15341;DHT22;7770;52.158;5.372;2023-03-17T03:21:47;8.00;99.90
15341;DHT22;7770;52.158;5.372;2023-03-17T03:24:34;8.00;99.90
15341;DHT22;7770;52.158;5.372;2023-03-17T03:27:20;8.10;99.90
15341;DHT22;7770;52.158;5.372;2023-03-17T03:30:07;8.10;99.90
15341;DHT22;7770;52.158;5.372;2023-03-17T03:32:55;8.10;99.90
15341;DHT22;7770;52.158;5.372;2023-03-17T03:35:41;8.10;99.90
15341;DHT22;7770;52.158;5.372;2023-03-17T03:38:28;8.10;99.90
15341;DHT22;7770;52.158;5.372;2023-03-17T03:41:15;8.10;99.90
15341;DHT22;7770;52.158;5.372;2023-03-17T03:44:01;8.20;99.90
15341;DHT22;7770;52.158;5.372;2023-03-17T03:46:47;8.20;99.90
15341;DHT22;7770;52.158;5.372;2023-03-17T03:49:33;8.20;99.90
15341;DHT22;7770;52.158;5.372;2023-03-17T03:52:19;8.30;99.90
15341;DHT22;7770;52.158;5.372;2023-03-17T03:55:05;8.30;99.90
15341;DHT22;7770;52.158;5.372;2023-03-17T03:57:52;8.30;99.90
15341;DHT22;7770;52.158;5.372;2023-03-17T04:00:38;8.30;99.90
15341;DHT22;7770;52.158;5.372;2023-03-17T04:03:24;8.30;99.90
15341;DHT22;7770;52.158;5.372;2023-03-17T04:06:10;8.30;99.90
15341;DHT22;7770;52.158;5.372;2023-03-17T04:08:56;8.30;99.90
15341;DHT22;7770;52.158;5.372;2023-03-17T04:11:42;8.30;99.90
15341;DHT22;7770;52.158;5.372;2023-03-17T04:14:28;8.40;99.90
15341;DHT22;7770;52.158;5.372;2023-03-17T04:17:14;8.30;99.90
15341;DHT22;7770;52.158;5.372;2023-03-17T04:20:00;8.30;99.90
15341;DHT22;7770;52.158;5.372;2023-03-17T04:22:46;8.30;99.90
15341;DHT22;7770;52.158;5.372;2023-03-17T04:25:32;8.30;99.90
15341;DHT22;7770;52.158;5.372;2023-03-17T04:28:19;8.30;99.90
15341;DHT22;7770;52.158;5.372;2023-03-17T04:31:08;8.40;99.90
15341;DHT22;7770;52.158;5.372;2023-03-17T04:33:56;8.30;99.90
15341;DHT22;7770;52.158;5.372;2023-03-17T04:36:44;8.30;99.90
15341;DHT22;7770;52.158;5.372;2023-03-17T04:39:30;8.30;99.90
15341;DHT22;7770;52.158;5.372;2023-03-17T04:42:17;8.30;99.90
15341;DHT22;7770;52.158;5.372;2023-03-17T04:45:04;8.30;99.90
15341;DHT22;7770;52.158;5.372;2023-03-17T04:47:51;8.40;99.90
15341;DHT22;7770;52.158;5.372;2023-03-17T04:50:37;8.30;99.90
15341;DHT22;7770;52.158;5.372;2023-03-17T04:53:23;8.30;99.90
15341;DHT22;7770;52.158;5.372;2023-03-17T04:56:10;8.30;99.90
15341;DHT22;7770;52.158;5.372;2023-03-17T04:58:56;8.30;99.90
15341;DHT22;7770;52.158;5.372;2023-03-17T05:01:42;8.30;99.90
15341;DHT22;7770;52.158;5.372;2023-03-17T05:04:28;8.40;99.90
15341;DHT22;7770;52.158;5.372;2023-03-17T05:07:14;8.40;99.90
15341;DHT22;7770;52.158;5.372;2023-03-17T05:10:00;8.40;99.90
15341;DHT22;7770;52.158;5.372;2023-03-17T05:12:46;8.40;99.90
15341;DHT22;7770;52.158;5.372;2023-03-17T05:15:32;8.40;99.90
15341;DHT22;7770;52.158;5.372;2023-03-17T05:18:20;8.40;99.90
15341;DHT22;7770;52.158;5.372;2023-03-17T05:21:07;8.40;99.90
15341;DHT22;7770;52.158;5.372;2023-03-17T05:23:53;8.40;99.90
15341;DHT22;7770;52.158;5.372;2023-03-17T05:26:40;8.40;99.90
15341;DHT22;7770;52.158;5.372;2023-03-17T05:29:26;8.40;99.90
15341;DHT22;7770;52.158;5.372;2023-03-17T05:32:12;8.40;99.90
15341;DHT22;7770;52.158;5.372;2023-03-17T05:34:58;8.40;99.90
15341;DHT22;7770;52.158;5.372;2023-03-17T05:37:45;8.40;99.90
15341;DHT22;7770;52.158;5.372;2023-03-17T05:40:31;8.40;99.90
15341;DHT22;7770;52.158;5.372;2023-03-17T05:43:17;8.30;99.90
15341;DHT22;7770;52.158;5.372;2023-03-17T05:46:04;8.30;99.90
15341;DHT22;7770;52.158;5.372;2023-03-17T05:48:50;8.30;99.90
15341;DHT22;7770;52.158;5.372;2023-03-17T05:51:36;8.40;99.90
15341;DHT22;7770;52.158;5.372;2023-03-17T05:54:22;8.30;99.90
15341;DHT22;7770;52.158;5.372;2023-03-17T05:57:08;8.30;99.90
15341;DHT22;7770;52.158;5.372;2023-03-17T05:59:55;8.30;99.90
15341;DHT22;7770;52.158;5.372;2023-03-17T06:02:41;8.30;99.90
15341;DHT22;7770;52.158;5.372;2023-03-17T06:05:28;8.30;99.90
15341;DHT22;7770;52.158;5.372;2023-03-17T06:08:15;8.30;99.90
15341;DHT22;7770;52.158;5.372;2023-03-17T06:11:01;8.30;99.90
15341;DHT22;7770;52.158;5.372;2023-03-17T06:13:47;8.30;99.90
15341;DHT22;7770;52.158;5.372;2023-03-17T06:16:33;8.30;99.90
15341;DHT22;7770;52.158;5.372;2023-03-17T06:19:19;8.30;99.90
15341;DHT22;7770;52.158;5.372;2023-03-17T06:22:06;8.30;99.90
15341;DHT22;7770;52.158;5.372;2023-03-17T06:24:52;8.40;99.90
15341;DHT22;7770;52.158;5.372;2023-03-17T06:27:38;8.40;99.90
15341;DHT22;7770;52.158;5.372;2023-03-17T06:30:25;8.50;99.90
15341;DHT22;7770;52.158;5.372;2023-03-17T06:33:11;8.50;99.90
15341;DHT22;7770;52.158;5.372;2023-03-17T06:35:57;8.50;99.90
15341;DHT22;7770;52.158;5.372;2023-03-17T06:38:44;8.50;99.90
15341;DHT22;7770;52.158;5.372;2023-03-17T06:41:30;8.50;99.90
15341;DHT22;7770;52.158;5.372;2023-03-17T06:44:16;8.70;99.90
15341;DHT22;7770;52.158;5.372;2023-03-17T06:47:02;9.00;99.90
15341;DHT22;7770;52.158;5.372;2023-03-17T06:49:49;9.10;99.90
15341;DHT22;7770;52.158;5.372;2023-03-17T06:52:36;9.40;99.90
15341;DHT22;7770;52.158;5.372;2023-03-17T06:55:22;9.50;99.90
15341;DHT22;7770;52.158;5.372;2023-03-17T06:58:08;9.80;99.90
15341;DHT22;7770;52.158;5.372;2023-03-17T07:00:55;10.10;99.90
15341;DHT22;7770;52.158;5.372;2023-03-17T07:03:41;10.40;99.90
15341;DHT22;7770;52.158;5.372;2023-03-17T07:06:27;10.80;99.90
15341;DHT22;7770;52.158;5.372;2023-03-17T07:09:13;11.00;99.90
15341;DHT22;7770;52.158;5.372;2023-03-17T07:12:00;11.00;99.90
15341;DHT22;7770;52.158;5.372;2023-03-17T07:14:50;10.60;99.90
15341;DHT22;7770;52.158;5.372;2023-03-17T07:17:36;10.30;99.90
15341;DHT22;7770;52.158;5.372;2023-03-17T07:20:22;10.20;99.90
15341;DHT22;7770;52.158;5.372;2023-03-17T07:23:20;10.20;99.90
15341;DHT22;7770;52.158;5.372;2023-03-17T07:26:07;10.30;99.90
15341;DHT22;7770;52.158;5.372;2023-03-17T07:28:54;10.20;99.90
15341;DHT22;7770;52.158;5.372;2023-03-17T07:31:40;10.20;99.90
15341;DHT22;7770;52.158;5.372;2023-03-17T07:34:28;10.20;99.90
15341;DHT22;7770;52.158;5.372;2023-03-17T07:37:14;10.30;99.90
15341;DHT22;7770;52.158;5.372;2023-03-17T07:40:00;10.40;99.90
15341;DHT22;7770;52.158;5.372;2023-03-17T07:42:46;10.50;99.90
15341;DHT22;7770;52.158;5.372;2023-03-17T07:45:32;10.60;99.90
15341;DHT22;7770;52.158;5.372;2023-03-17T07:48:20;10.80;99.90
15341;DHT22;7770;52.158;5.372;2023-03-17T07:51:12;10.90;99.90
15341;DHT22;7770;52.158;5.372;2023-03-17T07:54:00;11.00;99.90
15341;DHT22;7770;52.158;5.372;2023-03-17T07:56:50;11.20;99.90
15341;DHT22;7770;52.158;5.372;2023-03-17T07:59:37;11.20;99.90
15341;DHT22;7770;52.158;5.372;2023-03-17T08:02:24;11.30;99.90
15341;DHT22;7770;52.158;5.372;2023-03-17T08:05:11;11.70;99.90
15341;DHT22;7770;52.158;5.372;2023-03-17T08:07:57;11.80;99.90
15341;DHT22;7770;52.158;5.372;2023-03-17T08:10:44;12.00;99.90
15341;DHT22;7770;52.158;5.372;2023-03-17T08:13:31;12.50;99.40
15341;DHT22;7770;52.158;5.372;2023-03-17T08:16:17;13.30;98.30
15341;DHT22;7770;52.158;5.372;2023-03-17T08:19:03;14.50;96.70
15341;DHT22;7770;52.158;5.372;2023-03-17T08:21:49;15.20;95.60
15341;DHT22;7770;52.158;5.372;2023-03-17T08:24:36;16.40;94.00
15341;DHT22;7770;52.158;5.372;2023-03-17T08:27:23;16.60;93.40
15341;DHT22;7770;52.158;5.372;2023-03-17T08:30:09;16.80;93.50
15341;DHT22;7770;52.158;5.372;2023-03-17T08:32:57;17.20;93.00
15341;DHT22;7770;52.158;5.372;2023-03-17T08:35:43;18.40;92.10
15341;DHT22;7770;52.158;5.372;2023-03-17T08:38:29;19.40;91.30
15341;DHT22;7770;52.158;5.372;2023-03-17T08:41:19;19.40;90.50
15341;DHT22;7770;52.158;5.372;2023-03-17T08:44:08;19.80;89.50
15341;DHT22;7770;52.158;5.372;2023-03-17T08:46:55;19.40;90.00
15341;DHT22;7770;52.158;5.372;2023-03-17T08:49:41;19.50;90.40
15341;DHT22;7770;52.158;5.372;2023-03-17T08:52:28;21.10;88.30
15341;DHT22;7770;52.158;5.372;2023-03-17T08:55:15;20.60;88.70
15341;DHT22;7770;52.158;5.372;2023-03-17T08:58:01;21.00;88.00
15341;DHT22;7770;52.158;5.372;2023-03-17T09:00:47;21.30;87.00
15341;DHT22;7770;52.158;5.372;2023-03-17T09:03:33;21.20;86.30
15341;DHT22;7770;52.158;5.372;2023-03-17T09:06:20;21.60;85.60
15341;DHT22;7770;52.158;5.372;2023-03-17T09:09:07;21.00;86.60
15341;DHT22;7770;52.158;5.372;2023-03-17T09:11:53;20.40;88.30
15341;DHT22;7770;52.158;5.372;2023-03-17T09:14:39;20.90;88.10
15341;DHT22;7770;52.158;5.372;2023-03-17T09:17:25;21.20;88.30
15341;DHT22;7770;52.158;5.372;2023-03-17T09:20:12;21.90;85.30
15341;DHT22;7770;52.158;5.372;2023-03-17T09:22:58;22.20;85.50
15341;DHT22;7770;52.158;5.372;2023-03-17T09:25:44;21.80;85.50
15341;DHT22;7770;52.158;5.372;2023-03-17T09:28:31;20.90;90.00
15341;DHT22;7770;52.158;5.372;2023-03-17T09:31:17;20.70;88.30
15341;DHT22;7770;52.158;5.372;2023-03-17T09:34:04;20.80;88.70
15341;DHT22;7770;52.158;5.372;2023-03-17T09:36:52;21.40;87.80
15341;DHT22;7770;52.158;5.372;2023-03-17T09:39:38;21.60;87.60
15341;DHT22;7770;52.158;5.372;2023-03-17T09:45:38;21.60;86.70
15341;DHT22;7770;52.158;5.372;2023-03-17T09:48:46;22.20;87.50
15341;DHT22;7770;52.158;5.372;2023-03-17T09:51:37;23.00;84.20
15341;DHT22;7770;52.158;5.372;2023-03-17T09:54:33;23.80;84.20
15341;DHT22;7770;52.158;5.372;2023-03-17T09:57:38;24.50;80.80
15341;DHT22;7770;52.158;5.372;2023-03-17T10:00:26;24.40;81.70
15341;DHT22;7770;52.158;5.372;2023-03-17T10:03:15;24.50;81.60
15341;DHT22;7770;52.158;5.372;2023-03-17T10:06:23;25.00;80.40
15341;DHT22;7770;52.158;5.372;2023-03-17T10:15:49;19.60;90.70
15341;DHT22;7770;52.158;5.372;2023-03-17T10:18:51;19.20;91.80
15341;DHT22;7770;52.158;5.372;2023-03-17T10:21:47;19.50;91.30
15341;DHT22;7770;52.158;5.372;2023-03-17T10:24:39;20.30;90.80
15341;DHT22;7770;52.158;5.372;2023-03-17T10:27:33;20.40;90.50
15341;DHT22;7770;52.158;5.372;2023-03-17T10:30:22;20.30;90.70
15341;DHT22;7770;52.158;5.372;2023-03-17T10:33:08;19.90;90.70
15341;DHT22;7770;52.158;5.372;2023-03-17T10:35:55;21.30;90.10
15341;DHT22;7770;52.158;5.372;2023-03-17T10:38:51;22.80;89.40
15341;DHT22;7770;52.158;5.372;2023-03-17T10:41:45;23.60;85.40
15341;DHT22;7770;52.158;5.372;2023-03-17T10:47:57;21.80;89.20
15341;DHT22;7770;52.158;5.372;2023-03-17T10:50:45;20.90;91.00
15341;DHT22;7770;52.158;5.372;2023-03-17T10:53:39;20.90;90.40
15341;DHT22;7770;52.158;5.372;2023-03-17T10:56:33;21.70;89.50
15341;DHT22;7770;52.158;5.372;2023-03-17T10:59:27;21.90;89.30
15341;DHT22;7770;52.158;5.372;2023-03-17T11:02:43;22.40;90.00
15341;DHT22;7770;52.158;5.372;2023-03-17T11:05:32;23.00;87.30
15341;DHT22;7770;52.158;5.372;2023-03-17T11:08:18;22.90;88.90
15341;DHT22;7770;52.158;5.372;2023-03-17T11:11:20;23.30;88.00
15341;DHT22;7770;52.158;5.372;2023-03-17T11:14:14;23.30;87.10
15341;DHT22;7770;52.158;5.372;2023-03-17T11:17:16;23.40;88.70
15341;DHT22;7770;52.158;5.372;2023-03-17T11:20:39;24.00;87.10
15341;DHT22;7770;52.158;5.372;2023-03-17T11:26:53;25.00;84.90
15341;DHT22;7770;52.158;5.372;2023-03-17T11:35:49;21.60;90.70
15341;DHT22;7770;52.158;5.372;2023-03-17T11:39:04;20.90;91.60
15341;DHT22;7770;52.158;5.372;2023-03-17T11:41:59;20.60;91.90
15341;DHT22;7770;52.158;5.372;2023-03-17T11:45:24;20.80;92.10
15341;DHT22;7770;52.158;5.372;2023-03-17T11:54:40;22.20;90.30
15341;DHT22;7770;52.158;5.372;2023-03-17T11:57:46;21.90;91.00
15341;DHT22;7770;52.158;5.372;2023-03-17T12:00:38;21.20;92.00
15341;DHT22;7770;52.158;5.372;2023-03-17T12:03:51;21.20;91.80
15341;DHT22;7770;52.158;5.372;2023-03-17T12:07:04;21.40;91.30
15341;DHT22;7770;52.158;5.372;2023-03-17T12:13:41;21.30;91.40
15341;DHT22;7770;52.158;5.372;2023-03-17T12:16:39;21.70;91.40
15341;DHT22;7770;52.158;5.372;2023-03-17T12:19:38;21.70;91.80
15341;DHT22;7770;52.158;5.372;2023-03-17T12:26:00;21.80;91.70
15341;DHT22;7770;52.158;5.372;2023-03-17T12:28:55;21.90;91.20
15341;DHT22;7770;52.158;5.372;2023-03-17T12:31:51;20.80;91.80
15341;DHT22;7770;52.158;5.372;2023-03-17T12:34:54;20.20;93.70
15341;DHT22;7770;52.158;5.372;2023-03-17T12:37:44;20.10;94.60
15341;DHT22;7770;52.158;5.372;2023-03-17T12:41:12;20.30;93.50
15341;DHT22;7770;52.158;5.372;2023-03-17T12:54:19;19.80;93.90
15341;DHT22;7770;52.158;5.372;2023-03-17T12:57:21;19.30;93.90
15341;DHT22;7770;52.158;5.372;2023-03-17T13:00:23;18.50;95.50
15341;DHT22;7770;52.158;5.372;2023-03-17T13:03:24;18.40;94.90
15341;DHT22;7770;52.158;5.372;2023-03-17T13:06:16;18.20;95.60
15341;DHT22;7770;52.158;5.372;2023-03-17T13:18:44;18.70;95.80
15341;DHT22;7770;52.158;5.372;2023-03-17T13:21:32;18.40;96.20
15341;DHT22;7770;52.158;5.372;2023-03-17T13:24:34;18.10;96.00
15341;DHT22;7770;52.158;5.372;2023-03-17T13:42:34;18.60;96.10
15341;DHT22;7770;52.158;5.372;2023-03-17T13:45:39;18.80;95.90
15341;DHT22;7770;52.158;5.372;2023-03-17T13:48:34;19.10;95.90
15341;DHT22;7770;52.158;5.372;2023-03-17T13:51:26;18.90;95.50
15341;DHT22;7770;52.158;5.372;2023-03-17T13:57:28;18.70;95.70
15341;DHT22;7770;52.158;5.372;2023-03-17T14:00:25;18.40;96.10
15341;DHT22;7770;52.158;5.372;2023-03-17T14:03:40;18.20;96.40
15341;DHT22;7770;52.158;5.372;2023-03-17T14:06:29;18.00;96.40
15341;DHT22;7770;52.158;5.372;2023-03-17T14:09:52;18.20;96.60
15341;DHT22;7770;52.158;5.372;2023-03-17T14:18:47;18.20;96.60
15341;DHT22;7770;52.158;5.372;2023-03-17T14:21:35;18.20;96.70
15341;DHT22;7770;52.158;5.372;2023-03-17T14:24:32;18.20;96.90
15341;DHT22;7770;52.158;5.372;2023-03-17T14:27:19;18.00;96.50
15341;DHT22;7770;52.158;5.372;2023-03-17T14:30:08;18.00;96.70
15341;DHT22;7770;52.158;5.372;2023-03-17T14:36:00;18.20;96.90
15341;DHT22;7770;52.158;5.372;2023-03-17T14:38:50;18.30;96.80
15341;DHT22;7770;52.158;5.372;2023-03-17T14:41:40;18.10;96.60
15341;DHT22;7770;52.158;5.372;2023-03-17T14:44:27;18.10;96.80
15341;DHT22;7770;52.158;5.372;2023-03-17T14:47:24;18.30;96.90
15341;DHT22;7770;52.158;5.372;2023-03-17T14:50:19;18.20;96.60
15341;DHT22;7770;52.158;5.372;2023-03-17T14:53:10;17.90;96.80
15341;DHT22;7770;52.158;5.372;2023-03-17T14:55:58;17.80;97.20
15341;DHT22;7770;52.158;5.372;2023-03-17T14:58:46;17.40;97.20
15341;DHT22;7770;52.158;5.372;2023-03-17T15:01:37;17.40;97.80
15341;DHT22;7770;52.158;5.372;2023-03-17T15:04:31;17.40;97.70
15341;DHT22;7770;52.158;5.372;2023-03-17T15:07:39;17.40;97.90
15341;DHT22;7770;52.158;5.372;2023-03-17T15:10:27;17.40;97.80
15341;DHT22;7770;52.158;5.372;2023-03-17T15:13:18;17.40;97.70
15341;DHT22;7770;52.158;5.372;2023-03-17T15:16:11;17.40;97.90
15341;DHT22;7770;52.158;5.372;2023-03-17T15:19:23;17.50;98.10
15341;DHT22;7770;52.158;5.372;2023-03-17T15:28:18;17.50;97.50
15341;DHT22;7770;52.158;5.372;2023-03-17T15:31:12;17.40;98.00
15341;DHT22;7770;52.158;5.372;2023-03-17T15:33:59;17.20;98.00
15341;DHT22;7770;52.158;5.372;2023-03-17T15:36:45;17.00;98.10
15341;DHT22;7770;52.158;5.372;2023-03-17T15:39:32;17.00;98.40
15341;DHT22;7770;52.158;5.372;2023-03-17T15:42:20;16.80;98.60
15341;DHT22;7770;52.158;5.372;2023-03-17T15:45:13;16.80;98.40
15341;DHT22;7770;52.158;5.372;2023-03-17T15:48:00;16.80;98.50
15341;DHT22;7770;52.158;5.372;2023-03-17T15:50:47;16.70;98.50
15341;DHT22;7770;52.158;5.372;2023-03-17T15:53:33;16.70;98.70
15341;DHT22;7770;52.158;5.372;2023-03-17T15:56:20;16.70;98.70
15341;DHT22;7770;52.158;5.372;2023-03-17T15:59:06;16.70;98.70
15341;DHT22;7770;52.158;5.372;2023-03-17T16:01:52;16.80;98.80
15341;DHT22;7770;52.158;5.372;2023-03-17T16:04:38;16.80;98.50
15341;DHT22;7770;52.158;5.372;2023-03-17T16:07:25;16.70;98.60
15341;DHT22;7770;52.158;5.372;2023-03-17T16:10:29;16.80;99.00
15341;DHT22;7770;52.158;5.372;2023-03-17T16:13:18;16.70;98.70
15341;DHT22;7770;52.158;5.372;2023-03-17T16:16:04;16.70;98.50
15341;DHT22;7770;52.158;5.372;2023-03-17T16:18:50;16.70;98.70
15341;DHT22;7770;52.158;5.372;2023-03-17T16:21:37;16.70;98.70
15341;DHT22;7770;52.158;5.372;2023-03-17T16:24:24;16.70;98.50
15341;DHT22;7770;52.158;5.372;2023-03-17T16:27:14;16.60;98.80
15341;DHT22;7770;52.158;5.372;2023-03-17T16:30:00;16.60;98.80
15341;DHT22;7770;52.158;5.372;2023-03-17T16:32:47;16.60;98.60
15341;DHT22;7770;52.158;5.372;2023-03-17T16:35:33;16.60;98.70
15341;DHT22;7770;52.158;5.372;2023-03-17T16:38:22;16.50;98.60
15341;DHT22;7770;52.158;5.372;2023-03-17T16:41:21;16.40;98.60
15341;DHT22;7770;52.158;5.372;2023-03-17T16:44:10;16.30;98.90
15341;DHT22;7770;52.158;5.372;2023-03-17T16:46:56;16.30;98.90
15341;DHT22;7770;52.158;5.372;2023-03-17T16:49:42;16.20;99.10
15341;DHT22;7770;52.158;5.372;2023-03-17T16:52:28;16.20;99.20
15341;DHT22;7770;52.158;5.372;2023-03-17T16:55:15;16.10;99.20
15341;DHT22;7770;52.158;5.372;2023-03-17T16:58:14;16.00;99.40
15341;DHT22;7770;52.158;5.372;2023-03-17T17:01:08;16.00;99.60
15341;DHT22;7770;52.158;5.372;2023-03-17T17:03:59;16.00;99.50
15341;DHT22;7770;52.158;5.372;2023-03-17T17:06:45;15.90;99.60
15341;DHT22;7770;52.158;5.372;2023-03-17T17:09:31;15.90;99.80
15341;DHT22;7770;52.158;5.372;2023-03-17T17:12:17;15.90;99.70
15341;DHT22;7770;52.158;5.372;2023-03-17T17:15:04;15.90;99.90
15341;DHT22;7770;52.158;5.372;2023-03-17T17:17:56;15.80;99.90
15341;DHT22;7770;52.158;5.372;2023-03-17T17:20:44;15.80;99.90
15341;DHT22;7770;52.158;5.372;2023-03-17T17:23:30;15.70;99.90
15341;DHT22;7770;52.158;5.372;2023-03-17T17:26:17;15.70;99.90
15341;DHT22;7770;52.158;5.372;2023-03-17T17:29:03;15.60;99.90
15341;DHT22;7770;52.158;5.372;2023-03-17T17:31:49;15.60;99.90
15341;DHT22;7770;52.158;5.372;2023-03-17T17:34:35;15.50;99.90
15341;DHT22;7770;52.158;5.372;2023-03-17T17:37:21;15.50;99.90
15341;DHT22;7770;52.158;5.372;2023-03-17T17:40:11;15.40;99.90
15341;DHT22;7770;52.158;5.372;2023-03-17T17:42:58;15.40;99.90
15341;DHT22;7770;52.158;5.372;2023-03-17T17:45:46;15.40;99.90
15341;DHT22;7770;52.158;5.372;2023-03-17T17:48:35;15.40;99.90
15341;DHT22;7770;52.158;5.372;2023-03-17T17:51:21;15.40;99.90
15341;DHT22;7770;52.158;5.372;2023-03-17T17:54:07;15.40;99.90
15341;DHT22;7770;52.158;5.372;2023-03-17T17:56:53;15.40;99.90
15341;DHT22;7770;52.158;5.372;2023-03-17T17:59:39;15.30;99.90
15341;DHT22;7770;52.158;5.372;2023-03-17T18:02:25;15.30;99.90
15341;DHT22;7770;52.158;5.372;2023-03-17T18:05:11;15.20;99.90
15341;DHT22;7770;52.158;5.372;2023-03-17T18:07:58;15.20;99.90
15341;DHT22;7770;52.158;5.372;2023-03-17T18:10:44;15.20;99.90
15341;DHT22;7770;52.158;5.372;2023-03-17T18:13:31;15.20;99.90
15341;DHT22;7770;52.158;5.372;2023-03-17T18:16:19;15.20;99.90
15341;DHT22;7770;52.158;5.372;2023-03-17T18:19:07;15.20;99.90
15341;DHT22;7770;52.158;5.372;2023-03-17T18:21:53;15.10;99.90
15341;DHT22;7770;52.158;5.372;2023-03-17T18:24:40;15.10;99.90
15341;DHT22;7770;52.158;5.372;2023-03-17T18:27:26;15.10;99.90
15341;DHT22;7770;52.158;5.372;2023-03-17T18:30:27;15.10;99.90
15341;DHT22;7770;52.158;5.372;2023-03-17T18:33:16;15.00;99.90
15341;DHT22;7770;52.158;5.372;2023-03-17T18:36:04;14.90;99.90
15341;DHT22;7770;52.158;5.372;2023-03-17T18:38:51;14.90;99.90
15341;DHT22;7770;52.158;5.372;2023-03-17T18:41:37;14.90;99.90
15341;DHT22;7770;52.158;5.372;2023-03-17T18:44:23;14.90;99.90
15341;DHT22;7770;52.158;5.372;2023-03-17T18:47:09;14.90;99.90
15341;DHT22;7770;52.158;5.372;2023-03-17T18:49:56;14.90;99.90
15341;DHT22;7770;52.158;5.372;2023-03-17T18:52:44;14.80;99.90
15341;DHT22;7770;52.158;5.372;2023-03-17T18:55:31;14.80;99.90
15341;DHT22;7770;52.158;5.372;2023-03-17T18:58:17;14.80;99.90
15341;DHT22;7770;52.158;5.372;2023-03-17T19:01:03;14.80;99.90
15341;DHT22;7770;52.158;5.372;2023-03-17T19:03:49;14.80;99.90
15341;DHT22;7770;52.158;5.372;2023-03-17T19:06:35;14.70;99.90
15341;DHT22;7770;52.158;5.372;2023-03-17T19:09:24;14.70;99.90
15341;DHT22;7770;52.158;5.372;2023-03-17T19:12:10;14.70;99.90
15341;DHT22;7770;52.158;5.372;2023-03-17T19:14:56;14.60;99.90
15341;DHT22;7770;52.158;5.372;2023-03-17T19:17:42;14.60;99.90
15341;DHT22;7770;52.158;5.372;2023-03-17T19:20:28;14.60;99.90
15341;DHT22;7770;52.158;5.372;2023-03-17T19:23:14;14.60;99.90
15341;DHT22;7770;52.158;5.372;2023-03-17T19:26:01;14.60;99.90
15341;DHT22;7770;52.158;5.372;2023-03-17T19:28:47;14.50;99.90
15341;DHT22;7770;52.158;5.372;2023-03-17T19:31:33;14.50;99.90
15341;DHT22;7770;52.158;5.372;2023-03-17T19:34:19;14.50;99.90
15341;DHT22;7770;52.158;5.372;2023-03-17T19:37:05;14.50;99.90
15341;DHT22;7770;52.158;5.372;2023-03-17T19:39:51;14.40;99.90
15341;DHT22;7770;52.158;5.372;2023-03-17T19:42:37;14.40;99.90
15341;DHT22;7770;52.158;5.372;2023-03-17T19:45:23;14.40;99.90